createdAt,value
2019-03-11T00:01:17.918Z,65.30
2019-03-11T00:06:33.421Z,63.84
2019-03-11T00:11:26.698Z,65.73
2019-03-11T00:16:22.947Z,60.47
2019-03-11T00:21:18.855Z,62.02
2019-03-11T00:26:14.895Z,60.82
2019-03-11T00:31:10.913Z,61.77
2019-03-11T00:36:07.003Z,64.29
2019-03-11T00:41:02.947Z,66.45
2019-03-11T00:46:01.836Z,67.25
2019-03-11T00:50:57.708Z,69.01
2019-03-11T00:55:57.044Z,71.80
2019-03-11T01:00:52.836Z,71.98
2019-03-11T01:05:48.700Z,70.11
2019-03-11T01:10:44.870Z,72.97
2019-03-11T01:15:40.739Z,71.33
2019-03-11T01:20:36.560Z,71.14
2019-03-11T01:25:32.522Z,71.23
2019-03-11T01:30:28.376Z,71.21
2019-03-11T01:35:24.358Z,71.11
2019-03-11T01:40:20.316Z,72.66
2019-03-11T01:45:17.095Z,71.57
2019-03-11T01:50:15.077Z,70.94
2019-03-11T01:55:11.565Z,71.09
2019-03-11T02:00:10.885Z,70.17
2019-03-11T02:05:07.481Z,70.96
2019-03-11T02:10:03.367Z,72.05
2019-03-11T02:14:59.223Z,70.75
2019-03-11T02:19:57.834Z,71.35
2019-03-11T02:24:53.557Z,71.97
2019-03-11T02:29:49.495Z,70.95
2019-03-11T02:34:45.344Z,71.68
2019-03-11T02:39:41.231Z,71.07
2019-03-11T02:44:37.236Z,70.91
2019-03-11T02:49:33.077Z,69.73
2019-03-11T02:54:29.027Z,68.87
2019-03-11T02:59:24.853Z,67.66
2019-03-11T03:04:30.839Z,70.63
2019-03-11T03:09:26.641Z,68.35
2019-03-11T03:14:22.482Z,69.37
2019-03-11T03:19:18.295Z,69.81
2019-03-11T03:24:17.250Z,67.99
2019-03-11T03:29:13.036Z,66.25
2019-03-11T03:34:08.897Z,68.20
2019-03-11T03:39:06.306Z,66.99
2019-03-11T03:44:02.252Z,64.36
2019-03-11T03:48:59.750Z,65.06
2019-03-11T03:53:58.396Z,68.66
2019-03-11T03:58:54.271Z,63.58
2019-03-11T04:04:01.190Z,64.94
2019-03-11T04:08:57.142Z,65.15
2019-03-11T04:13:54.517Z,64.03
2019-03-11T04:18:55.820Z,64.76
2019-03-11T04:23:51.774Z,65.48
2019-03-11T04:28:47.826Z,64.46
2019-03-11T04:33:43.729Z,63.59
2019-03-11T04:38:39.621Z,65.87
2019-03-11T04:43:38.562Z,65.49
2019-03-11T04:48:34.404Z,66.34
2019-03-11T04:53:30.258Z,65.20
2019-03-11T04:58:26.089Z,65.85
2019-03-11T05:03:22.052Z,66.68
2019-03-11T05:08:19.978Z,68.14
2019-03-11T05:13:21.226Z,66.92
2019-03-11T05:18:17.047Z,66.94
2019-03-11T05:23:16.700Z,67.40
2019-03-11T05:28:13.843Z,67.94
2019-03-11T05:33:09.630Z,67.96
2019-03-11T05:38:05.738Z,67.81
2019-03-11T05:43:03.462Z,68.24
2019-03-11T05:48:01.437Z,66.99
2019-03-11T05:52:57.475Z,67.59
2019-03-11T05:57:53.573Z,67.30
2019-03-11T06:02:51.139Z,67.95
2019-03-11T06:07:47.256Z,68.25
2019-03-11T06:12:43.209Z,68.47
2019-03-11T06:17:39.096Z,68.47
2019-03-11T06:22:36.695Z,67.68
2019-03-11T06:27:32.587Z,67.64
2019-03-11T06:32:28.462Z,69.01
2019-03-11T06:37:24.379Z,69.48
2019-03-11T06:42:20.454Z,73.04
2019-03-11T06:47:19.073Z,73.83
2019-03-11T06:52:15.257Z,73.30
2019-03-11T06:57:12.970Z,75.82
2019-03-11T07:02:13.159Z,77.99
2019-03-11T07:07:08.807Z,81.95
2019-03-11T07:12:04.650Z,81.70
2019-03-11T07:38:34.388Z,82.19
2019-03-11T07:43:30.241Z,83.42
2019-03-11T07:48:26.057Z,86.65
2019-03-11T07:53:30.750Z,91.27
2019-03-11T07:58:27.893Z,91.79
2019-03-11T08:03:25.818Z,91.98
2019-03-11T08:08:23.419Z,91.08
2019-03-11T08:13:19.191Z,88.40
2019-03-11T08:18:34.217Z,87.64
2019-03-11T08:23:36.703Z,87.71
2019-03-11T08:28:35.800Z,100.00
2019-03-11T08:33:46.782Z,100.00
2019-03-11T09:05:00.349Z,98.58
2019-03-11T09:09:56.332Z,97.41
2019-03-11T09:34:03.004Z,95.13
2019-03-11T09:38:59.703Z,94.20
2019-03-11T09:43:57.251Z,95.33
2019-03-11T09:48:53.876Z,92.26
2019-03-11T09:53:56.169Z,91.80
2019-03-11T09:58:52.571Z,94.04
2019-03-11T10:03:50.757Z,95.63
2019-03-11T10:08:47.065Z,95.90
2019-03-11T10:14:34.314Z,96.42
2019-03-11T10:19:33.888Z,97.44
2019-03-11T10:24:30.474Z,95.75
2019-03-11T10:29:29.632Z,97.37
2019-03-11T10:34:26.043Z,97.66
2019-03-11T10:39:30.921Z,96.67
2019-03-11T10:44:27.477Z,94.80
2019-03-11T10:49:23.557Z,96.35
2019-03-11T10:54:19.994Z,96.16
2019-03-11T10:59:20.863Z,96.83
2019-03-11T11:04:18.821Z,95.82
2019-03-11T11:09:21.222Z,94.14
2019-03-11T11:14:43.249Z,96.79
2019-03-11T11:27:09.440Z,100.00
2019-03-11T11:38:46.107Z,100.00
2019-03-11T11:43:44.903Z,100.00
2019-03-11T11:55:29.424Z,98.00
2019-03-11T12:00:38.064Z,98.15
2019-03-11T12:14:10.873Z,98.89
2019-03-11T12:25:11.434Z,97.80
2019-03-11T12:30:42.939Z,97.78
2019-03-11T12:35:47.447Z,95.50
2019-03-11T12:40:46.348Z,93.48
2019-03-11T12:45:42.562Z,91.91
2019-03-11T12:50:38.694Z,91.64
2019-03-11T12:55:44.324Z,92.19
2019-03-11T13:00:52.727Z,90.51
2019-03-11T13:06:11.483Z,91.13
2019-03-11T13:11:24.991Z,90.72
2019-03-11T13:16:31.081Z,87.17
2019-03-11T13:21:55.100Z,90.15
2019-03-11T13:26:51.255Z,88.47
2019-03-11T13:31:50.790Z,87.11
2019-03-11T13:36:48.619Z,87.24
2019-03-11T13:41:48.516Z,86.64
2019-03-11T13:46:44.783Z,83.55
2019-03-11T13:51:41.117Z,86.88
2019-03-11T13:56:40.867Z,86.18
2019-03-11T14:01:37.180Z,93.19
2019-03-11T14:06:33.469Z,92.74
2019-03-11T14:11:29.816Z,90.56
2019-03-11T14:16:27.635Z,89.08
2019-03-11T14:21:26.033Z,90.12
2019-03-11T14:26:22.048Z,89.20
2019-03-11T14:31:18.167Z,89.75
2019-03-11T14:36:14.364Z,89.08
2019-03-11T14:41:10.458Z,86.98
2019-03-11T14:46:06.829Z,88.75
2019-03-11T14:52:14.611Z,87.03
2019-03-11T17:27:48.247Z,87.33
2019-03-11T17:32:44.646Z,88.15
2019-03-11T17:37:40.905Z,89.58
2019-03-11T17:42:41.122Z,90.02
2019-03-11T17:47:37.777Z,89.72
2019-03-11T17:52:34.373Z,90.03
2019-03-11T17:58:11.189Z,89.47
2019-03-11T18:03:09.702Z,89.58
2019-03-11T18:08:11.170Z,88.66
2019-03-11T18:13:17.822Z,89.39
2019-03-11T18:30:26.633Z,92.06
2019-03-11T18:35:40.362Z,91.60
2019-03-11T18:40:59.166Z,92.84
2019-03-11T18:59:30.613Z,90.94
2019-03-11T19:05:40.240Z,89.35
2019-03-11T19:10:42.206Z,91.02
2019-03-11T19:21:21.158Z,89.43
2019-03-11T19:31:48.343Z,88.86
2019-03-11T20:11:00.962Z,89.00
2019-03-11T20:16:00.685Z,91.75
2019-03-11T20:20:58.394Z,91.19
2019-03-11T20:25:59.497Z,90.39
2019-03-11T20:30:56.265Z,90.79
2019-03-11T20:35:53.650Z,91.21
2019-03-11T20:40:54.387Z,89.79
2019-03-11T20:45:53.166Z,90.50
2019-03-11T20:51:12.057Z,89.97
2019-03-11T20:56:13.501Z,90.48
2019-03-11T21:01:09.849Z,90.77
2019-03-11T21:06:18.629Z,91.04
2019-03-11T21:11:15.137Z,90.44
2019-03-11T21:16:14.501Z,90.50
2019-03-11T21:21:12.914Z,90.31
2019-03-11T21:26:10.067Z,91.51
2019-03-11T21:31:06.965Z,90.20
2019-03-11T21:36:13.948Z,90.23
2019-03-11T21:41:13.120Z,89.76
2019-03-11T21:46:09.793Z,89.44
2019-03-11T21:51:06.153Z,90.07
2019-03-11T21:56:02.269Z,89.26
2019-03-11T22:00:58.619Z,90.32
2019-03-11T22:05:54.913Z,89.70
2019-03-11T22:10:51.149Z,89.38
2019-03-11T22:15:47.474Z,89.71
2019-03-11T22:20:43.526Z,89.83
2019-03-11T22:25:39.578Z,89.29
2019-03-11T22:30:35.691Z,89.11
2019-03-11T22:35:31.834Z,88.87
2019-03-11T22:40:28.072Z,89.14
2019-03-11T22:45:24.379Z,89.06
2019-03-11T22:50:20.897Z,89.27
2019-03-11T22:55:17.493Z,88.79
2019-03-11T23:00:35.754Z,89.44
2019-03-11T23:05:31.866Z,89.01
2019-03-11T23:10:27.937Z,89.41
2019-03-11T23:15:34.344Z,89.75
2019-03-11T23:20:30.475Z,89.60
2019-03-11T23:25:26.711Z,89.70
2019-03-11T23:30:24.914Z,88.49
2019-03-11T23:35:21.031Z,88.58
2019-03-11T23:40:17.138Z,87.91
2019-03-11T23:45:13.211Z,87.97
2019-03-11T23:50:10.189Z,88.84
2019-03-11T23:55:07.391Z,87.87
